sensor_id;sensor_type;location;lat;lon;timestamp;P1;durP1;ratioP1;P2;durP2;ratioP2
24637;SDS011;12773;50.162;8.548;2023-05-10T00:01:54;1.57;;;0.70;;
24637;SDS011;12773;50.162;8.548;2023-05-10T00:04:42;4.20;;;0.50;;
24637;SDS011;12773;50.162;8.548;2023-05-10T00:07:29;2.25;;;0.53;;
24637;SDS011;12773;50.162;8.548;2023-05-10T00:10:17;0.40;;;0.40;;
24637;SDS011;12773;50.162;8.548;2023-05-10T00:13:04;1.12;;;0.45;;
24637;SDS011;12773;50.162;8.548;2023-05-10T00:15:52;1.60;;;0.55;;
24637;SDS011;12773;50.162;8.548;2023-05-10T00:18:40;2.80;;;0.60;;
24637;SDS011;12773;50.162;8.548;2023-05-10T00:21:27;1.12;;;0.40;;
24637;SDS011;12773;50.162;8.548;2023-05-10T00:24:15;0.50;;;0.45;;
24637;SDS011;12773;50.162;8.548;2023-05-10T00:27:02;0.40;;;0.40;;
24637;SDS011;12773;50.162;8.548;2023-05-10T00:29:49;2.62;;;0.60;;
24637;SDS011;12773;50.162;8.548;2023-05-10T00:32:38;4.85;;;0.60;;
24637;SDS011;12773;50.162;8.548;2023-05-10T00:35:25;0.47;;;0.40;;
24637;SDS011;12773;50.162;8.548;2023-05-10T00:38:13;1.15;;;0.55;;
24637;SDS011;12773;50.162;8.548;2023-05-10T00:41:00;1.87;;;0.40;;
24637;SDS011;12773;50.162;8.548;2023-05-10T00:43:48;1.42;;;0.40;;
24637;SDS011;12773;50.162;8.548;2023-05-10T00:46:36;0.57;;;0.50;;
24637;SDS011;12773;50.162;8.548;2023-05-10T00:49:23;2.72;;;0.50;;
24637;SDS011;12773;50.162;8.548;2023-05-10T00:52:11;0.75;;;0.30;;
24637;SDS011;12773;50.162;8.548;2023-05-10T00:54:58;0.20;;;0.20;;
24637;SDS011;12773;50.162;8.548;2023-05-10T00:57:47;2.40;;;0.40;;
24637;SDS011;12773;50.162;8.548;2023-05-10T01:00:34;0.40;;;0.30;;
24637;SDS011;12773;50.162;8.548;2023-05-10T01:03:23;0.50;;;0.30;;
24637;SDS011;12773;50.162;8.548;2023-05-10T01:06:11;1.42;;;0.40;;
24637;SDS011;12773;50.162;8.548;2023-05-10T01:08:59;2.58;;;0.30;;
24637;SDS011;12773;50.162;8.548;2023-05-10T01:11:46;1.00;;;0.30;;
24637;SDS011;12773;50.162;8.548;2023-05-10T01:14:33;1.32;;;0.47;;
24637;SDS011;12773;50.162;8.548;2023-05-10T01:17:21;2.20;;;0.60;;
24637;SDS011;12773;50.162;8.548;2023-05-10T01:20:09;1.00;;;0.60;;
24637;SDS011;12773;50.162;8.548;2023-05-10T01:23:10;0.90;;;0.65;;
24637;SDS011;12773;50.162;8.548;2023-05-10T01:32:09;1.52;;;0.90;;
24637;SDS011;12773;50.162;8.548;2023-05-10T01:35:22;2.50;;;0.80;;
24637;SDS011;12773;50.162;8.548;2023-05-10T01:38:38;0.98;;;0.68;;
24637;SDS011;12773;50.162;8.548;2023-05-10T01:44:46;0.98;;;0.80;;
24637;SDS011;12773;50.162;8.548;2023-05-10T01:47:54;3.87;;;0.60;;
24637;SDS011;12773;50.162;8.548;2023-05-10T01:50:54;2.52;;;0.78;;
24637;SDS011;12773;50.162;8.548;2023-05-10T01:53:44;1.98;;;0.70;;
24637;SDS011;12773;50.162;8.548;2023-05-10T01:56:33;1.15;;;0.70;;
24637;SDS011;12773;50.162;8.548;2023-05-10T01:59:22;1.70;;;0.68;;
24637;SDS011;12773;50.162;8.548;2023-05-10T02:02:13;6.10;;;0.88;;
24637;SDS011;12773;50.162;8.548;2023-05-10T02:05:06;1.00;;;0.55;;
24637;SDS011;12773;50.162;8.548;2023-05-10T02:07:55;0.55;;;0.45;;
24637;SDS011;12773;50.162;8.548;2023-05-10T02:10:44;3.08;;;0.80;;
24637;SDS011;12773;50.162;8.548;2023-05-10T02:13:33;4.22;;;0.78;;
24637;SDS011;12773;50.162;8.548;2023-05-10T02:16:23;3.05;;;0.78;;
24637;SDS011;12773;50.162;8.548;2023-05-10T02:19:12;2.20;;;0.70;;
24637;SDS011;12773;50.162;8.548;2023-05-10T02:22:00;1.65;;;0.62;;
24637;SDS011;12773;50.162;8.548;2023-05-10T02:24:49;3.58;;;0.80;;
24637;SDS011;12773;50.162;8.548;2023-05-10T02:27:38;3.02;;;0.60;;
24637;SDS011;12773;50.162;8.548;2023-05-10T02:30:27;3.35;;;0.80;;
24637;SDS011;12773;50.162;8.548;2023-05-10T02:33:17;3.17;;;0.75;;
24637;SDS011;12773;50.162;8.548;2023-05-10T02:36:07;0.85;;;0.82;;
24637;SDS011;12773;50.162;8.548;2023-05-10T02:38:56;0.98;;;0.88;;
24637;SDS011;12773;50.162;8.548;2023-05-10T02:41:46;1.55;;;0.80;;
24637;SDS011;12773;50.162;8.548;2023-05-10T02:44:36;1.27;;;0.85;;
24637;SDS011;12773;50.162;8.548;2023-05-10T02:47:25;2.83;;;0.88;;
24637;SDS011;12773;50.162;8.548;2023-05-10T02:50:13;2.52;;;1.05;;
24637;SDS011;12773;50.162;8.548;2023-05-10T02:53:03;1.95;;;0.85;;
24637;SDS011;12773;50.162;8.548;2023-05-10T02:55:52;1.32;;;0.80;;
24637;SDS011;12773;50.162;8.548;2023-05-10T02:58:42;2.05;;;1.10;;
24637;SDS011;12773;50.162;8.548;2023-05-10T03:01:33;3.55;;;1.30;;
24637;SDS011;12773;50.162;8.548;2023-05-10T03:04:20;3.50;;;1.70;;
24637;SDS011;12773;50.162;8.548;2023-05-10T03:07:08;3.92;;;1.40;;
24637;SDS011;12773;50.162;8.548;2023-05-10T03:09:55;3.55;;;1.60;;
24637;SDS011;12773;50.162;8.548;2023-05-10T03:16:10;4.25;;;1.55;;
24637;SDS011;12773;50.162;8.548;2023-05-10T03:18:55;3.70;;;1.70;;
24637;SDS011;12773;50.162;8.548;2023-05-10T03:21:47;2.33;;;1.60;;
24637;SDS011;12773;50.162;8.548;2023-05-10T03:24:36;4.05;;;1.37;;
24637;SDS011;12773;50.162;8.548;2023-05-10T03:27:26;1.72;;;1.40;;
24637;SDS011;12773;50.162;8.548;2023-05-10T03:30:14;3.08;;;1.20;;
24637;SDS011;12773;50.162;8.548;2023-05-10T03:33:05;1.82;;;1.40;;
24637;SDS011;12773;50.162;8.548;2023-05-10T03:35:53;1.52;;;1.22;;
24637;SDS011;12773;50.162;8.548;2023-05-10T03:38:40;5.85;;;1.25;;
24637;SDS011;12773;50.162;8.548;2023-05-10T03:41:28;2.00;;;1.30;;
24637;SDS011;12773;50.162;8.548;2023-05-10T03:44:16;1.62;;;1.40;;
24637;SDS011;12773;50.162;8.548;2023-05-10T03:47:03;5.17;;;1.45;;
24637;SDS011;12773;50.162;8.548;2023-05-10T03:49:50;4.62;;;1.20;;
24637;SDS011;12773;50.162;8.548;2023-05-10T03:52:38;3.87;;;1.22;;
24637;SDS011;12773;50.162;8.548;2023-05-10T03:55:25;1.67;;;1.20;;
24637;SDS011;12773;50.162;8.548;2023-05-10T03:58:14;4.85;;;1.95;;
24637;SDS011;12773;50.162;8.548;2023-05-10T04:01:01;2.45;;;1.65;;
24637;SDS011;12773;50.162;8.548;2023-05-10T04:03:48;7.75;;;2.52;;
24637;SDS011;12773;50.162;8.548;2023-05-10T04:06:37;4.90;;;2.80;;
24637;SDS011;12773;50.162;8.548;2023-05-10T04:09:25;7.55;;;3.20;;
24637;SDS011;12773;50.162;8.548;2023-05-10T04:12:12;8.30;;;3.60;;
24637;SDS011;12773;50.162;8.548;2023-05-10T04:15:00;7.62;;;3.60;;
24637;SDS011;12773;50.162;8.548;2023-05-10T04:17:47;8.10;;;3.90;;
24637;SDS011;12773;50.162;8.548;2023-05-10T04:20:35;7.87;;;3.30;;
24637;SDS011;12773;50.162;8.548;2023-05-10T04:23:22;8.48;;;4.08;;
24637;SDS011;12773;50.162;8.548;2023-05-10T04:26:10;5.75;;;3.58;;
24637;SDS011;12773;50.162;8.548;2023-05-10T04:28:57;6.67;;;3.37;;
24637;SDS011;12773;50.162;8.548;2023-05-10T04:31:45;4.03;;;2.95;;
24637;SDS011;12773;50.162;8.548;2023-05-10T04:34:32;5.65;;;3.20;;
24637;SDS011;12773;50.162;8.548;2023-05-10T04:37:20;5.53;;;3.42;;
24637;SDS011;12773;50.162;8.548;2023-05-10T04:40:09;10.30;;;3.40;;
24637;SDS011;12773;50.162;8.548;2023-05-10T04:42:56;4.67;;;3.55;;
24637;SDS011;12773;50.162;8.548;2023-05-10T04:45:44;6.08;;;3.20;;
24637;SDS011;12773;50.162;8.548;2023-05-10T04:48:31;5.62;;;2.95;;
24637;SDS011;12773;50.162;8.548;2023-05-10T04:51:19;14.68;;;4.45;;
24637;SDS011;12773;50.162;8.548;2023-05-10T04:54:06;3.47;;;2.45;;
24637;SDS011;12773;50.162;8.548;2023-05-10T04:56:54;6.58;;;3.22;;
24637;SDS011;12773;50.162;8.548;2023-05-10T04:59:41;5.25;;;3.25;;
24637;SDS011;12773;50.162;8.548;2023-05-10T05:02:28;5.55;;;2.85;;
24637;SDS011;12773;50.162;8.548;2023-05-10T05:05:16;6.22;;;3.05;;
24637;SDS011;12773;50.162;8.548;2023-05-10T05:08:04;3.92;;;2.95;;
24637;SDS011;12773;50.162;8.548;2023-05-10T05:10:51;6.50;;;3.15;;
24637;SDS011;12773;50.162;8.548;2023-05-10T05:13:41;4.78;;;2.90;;
24637;SDS011;12773;50.162;8.548;2023-05-10T05:16:30;5.28;;;2.55;;
24637;SDS011;12773;50.162;8.548;2023-05-10T05:19:18;5.15;;;2.95;;
24637;SDS011;12773;50.162;8.548;2023-05-10T05:22:06;5.22;;;2.75;;
24637;SDS011;12773;50.162;8.548;2023-05-10T05:24:54;8.35;;;2.60;;
24637;SDS011;12773;50.162;8.548;2023-05-10T05:27:44;5.00;;;2.60;;
24637;SDS011;12773;50.162;8.548;2023-05-10T05:30:31;4.03;;;2.50;;
24637;SDS011;12773;50.162;8.548;2023-05-10T05:33:19;4.33;;;2.50;;
24637;SDS011;12773;50.162;8.548;2023-05-10T05:36:07;7.20;;;2.60;;
24637;SDS011;12773;50.162;8.548;2023-05-10T05:38:54;3.70;;;2.50;;
24637;SDS011;12773;50.162;8.548;2023-05-10T05:41:42;8.03;;;2.80;;
24637;SDS011;12773;50.162;8.548;2023-05-10T05:44:29;4.70;;;2.52;;
24637;SDS011;12773;50.162;8.548;2023-05-10T05:47:17;9.78;;;2.80;;
24637;SDS011;12773;50.162;8.548;2023-05-10T05:50:05;3.15;;;2.40;;
24637;SDS011;12773;50.162;8.548;2023-05-10T05:52:52;4.50;;;2.58;;
24637;SDS011;12773;50.162;8.548;2023-05-10T05:55:39;6.22;;;2.52;;
24637;SDS011;12773;50.162;8.548;2023-05-10T05:58:27;5.70;;;2.77;;
24637;SDS011;12773;50.162;8.548;2023-05-10T06:01:14;7.58;;;3.20;;
24637;SDS011;12773;50.162;8.548;2023-05-10T06:04:02;6.62;;;2.90;;
24637;SDS011;12773;50.162;8.548;2023-05-10T06:06:49;8.10;;;2.90;;
24637;SDS011;12773;50.162;8.548;2023-05-10T06:09:37;3.83;;;2.87;;
24637;SDS011;12773;50.162;8.548;2023-05-10T06:12:24;4.40;;;2.77;;
24637;SDS011;12773;50.162;8.548;2023-05-10T06:15:11;5.03;;;2.60;;
24637;SDS011;12773;50.162;8.548;2023-05-10T06:17:59;3.65;;;2.42;;
24637;SDS011;12773;50.162;8.548;2023-05-10T06:20:47;4.90;;;2.50;;
24637;SDS011;12773;50.162;8.548;2023-05-10T06:23:35;4.60;;;2.45;;
24637;SDS011;12773;50.162;8.548;2023-05-10T06:26:22;7.62;;;2.83;;
24637;SDS011;12773;50.162;8.548;2023-05-10T06:29:10;4.08;;;2.42;;
24637;SDS011;12773;50.162;8.548;2023-05-10T06:31:57;3.20;;;2.62;;
24637;SDS011;12773;50.162;8.548;2023-05-10T06:34:45;6.53;;;2.33;;
24637;SDS011;12773;50.162;8.548;2023-05-10T06:37:32;7.35;;;2.25;;
24637;SDS011;12773;50.162;8.548;2023-05-10T06:40:20;4.33;;;2.20;;
24637;SDS011;12773;50.162;8.548;2023-05-10T06:43:08;3.75;;;2.30;;
24637;SDS011;12773;50.162;8.548;2023-05-10T06:45:56;3.75;;;2.02;;
24637;SDS011;12773;50.162;8.548;2023-05-10T06:48:44;5.72;;;2.55;;
24637;SDS011;12773;50.162;8.548;2023-05-10T06:51:31;3.10;;;1.98;;
24637;SDS011;12773;50.162;8.548;2023-05-10T06:54:19;4.47;;;2.12;;
24637;SDS011;12773;50.162;8.548;2023-05-10T06:57:06;5.17;;;2.20;;
24637;SDS011;12773;50.162;8.548;2023-05-10T06:59:55;5.75;;;2.10;;
24637;SDS011;12773;50.162;8.548;2023-05-10T07:02:42;5.45;;;2.10;;
24637;SDS011;12773;50.162;8.548;2023-05-10T07:05:29;3.62;;;2.00;;
24637;SDS011;12773;50.162;8.548;2023-05-10T07:08:17;8.18;;;1.90;;
24637;SDS011;12773;50.162;8.548;2023-05-10T07:11:05;3.75;;;2.08;;
24637;SDS011;12773;50.162;8.548;2023-05-10T07:13:53;3.85;;;2.10;;
24637;SDS011;12773;50.162;8.548;2023-05-10T07:16:46;6.08;;;2.00;;
24637;SDS011;12773;50.162;8.548;2023-05-10T07:19:30;4.40;;;1.90;;
24637;SDS011;12773;50.162;8.548;2023-05-10T07:22:18;2.60;;;2.05;;
24637;SDS011;12773;50.162;8.548;2023-05-10T07:25:05;4.95;;;2.35;;
24637;SDS011;12773;50.162;8.548;2023-05-10T07:27:53;3.80;;;2.50;;
24637;SDS011;12773;50.162;8.548;2023-05-10T07:30:40;4.95;;;3.05;;
24637;SDS011;12773;50.162;8.548;2023-05-10T07:33:28;7.20;;;2.95;;
24637;SDS011;12773;50.162;8.548;2023-05-10T07:36:16;6.87;;;2.65;;
24637;SDS011;12773;50.162;8.548;2023-05-10T07:39:03;6.33;;;2.95;;
24637;SDS011;12773;50.162;8.548;2023-05-10T07:41:51;7.85;;;2.92;;
24637;SDS011;12773;50.162;8.548;2023-05-10T07:44:38;4.72;;;2.70;;
24637;SDS011;12773;50.162;8.548;2023-05-10T07:47:26;7.05;;;2.75;;
24637;SDS011;12773;50.162;8.548;2023-05-10T07:50:13;6.87;;;3.22;;
24637;SDS011;12773;50.162;8.548;2023-05-10T07:53:01;6.67;;;2.75;;
24637;SDS011;12773;50.162;8.548;2023-05-10T07:55:52;7.33;;;2.60;;
24637;SDS011;12773;50.162;8.548;2023-05-10T07:58:41;5.42;;;2.55;;
24637;SDS011;12773;50.162;8.548;2023-05-10T08:01:29;9.03;;;2.55;;
24637;SDS011;12773;50.162;8.548;2023-05-10T08:04:18;3.98;;;2.60;;
24637;SDS011;12773;50.162;8.548;2023-05-10T08:07:06;8.60;;;2.45;;
24637;SDS011;12773;50.162;8.548;2023-05-10T08:09:53;5.40;;;2.05;;
24637;SDS011;12773;50.162;8.548;2023-05-10T08:12:41;5.10;;;2.33;;
24637;SDS011;12773;50.162;8.548;2023-05-10T08:15:28;3.77;;;1.90;;
24637;SDS011;12773;50.162;8.548;2023-05-10T08:18:16;6.65;;;2.47;;
24637;SDS011;12773;50.162;8.548;2023-05-10T08:21:05;5.12;;;1.90;;
24637;SDS011;12773;50.162;8.548;2023-05-10T08:23:53;4.22;;;2.10;;
24637;SDS011;12773;50.162;8.548;2023-05-10T08:26:40;3.35;;;1.55;;
24637;SDS011;12773;50.162;8.548;2023-05-10T08:29:27;3.77;;;1.75;;
24637;SDS011;12773;50.162;8.548;2023-05-10T08:32:16;2.90;;;1.65;;
24637;SDS011;12773;50.162;8.548;2023-05-10T08:35:04;8.13;;;1.70;;
24637;SDS011;12773;50.162;8.548;2023-05-10T08:37:51;6.35;;;2.10;;
24637;SDS011;12773;50.162;8.548;2023-05-10T08:40:41;3.12;;;2.05;;
24637;SDS011;12773;50.162;8.548;2023-05-10T08:43:29;6.22;;;2.15;;
24637;SDS011;12773;50.162;8.548;2023-05-10T08:46:18;4.65;;;2.17;;
24637;SDS011;12773;50.162;8.548;2023-05-10T08:49:06;8.00;;;2.08;;
24637;SDS011;12773;50.162;8.548;2023-05-10T08:51:54;11.45;;;2.65;;
24637;SDS011;12773;50.162;8.548;2023-05-10T08:54:43;6.78;;;2.75;;
24637;SDS011;12773;50.162;8.548;2023-05-10T08:57:30;5.05;;;2.83;;
24637;SDS011;12773;50.162;8.548;2023-05-10T09:00:18;8.90;;;3.20;;
24637;SDS011;12773;50.162;8.548;2023-05-10T09:03:07;7.30;;;2.25;;
24637;SDS011;12773;50.162;8.548;2023-05-10T09:05:55;2.70;;;2.10;;
24637;SDS011;12773;50.162;8.548;2023-05-10T09:08:42;5.60;;;2.62;;
24637;SDS011;12773;50.162;8.548;2023-05-10T09:11:31;3.50;;;1.80;;
24637;SDS011;12773;50.162;8.548;2023-05-10T09:14:18;4.22;;;2.37;;
24637;SDS011;12773;50.162;8.548;2023-05-10T09:17:06;6.15;;;2.40;;
24637;SDS011;12773;50.162;8.548;2023-05-10T09:20:03;3.83;;;2.30;;
24637;SDS011;12773;50.162;8.548;2023-05-10T09:22:46;5.33;;;2.12;;
24637;SDS011;12773;50.162;8.548;2023-05-10T09:25:34;2.77;;;1.77;;
24637;SDS011;12773;50.162;8.548;2023-05-10T09:28:23;3.90;;;1.82;;
24637;SDS011;12773;50.162;8.548;2023-05-10T09:31:11;5.35;;;1.90;;
24637;SDS011;12773;50.162;8.548;2023-05-10T09:33:58;4.53;;;1.90;;
24637;SDS011;12773;50.162;8.548;2023-05-10T09:36:54;5.30;;;2.17;;
24637;SDS011;12773;50.162;8.548;2023-05-10T09:39:39;4.45;;;1.80;;
24637;SDS011;12773;50.162;8.548;2023-05-10T09:42:27;3.08;;;1.82;;
24637;SDS011;12773;50.162;8.548;2023-05-10T09:45:14;3.33;;;2.30;;
24637;SDS011;12773;50.162;8.548;2023-05-10T09:48:02;3.42;;;1.98;;
24637;SDS011;12773;50.162;8.548;2023-05-10T09:50:56;3.50;;;1.70;;
24637;SDS011;12773;50.162;8.548;2023-05-10T09:53:46;2.45;;;1.20;;
24637;SDS011;12773;50.162;8.548;2023-05-10T09:56:35;3.87;;;1.67;;
24637;SDS011;12773;50.162;8.548;2023-05-10T09:59:26;4.33;;;1.80;;
24637;SDS011;12773;50.162;8.548;2023-05-10T10:02:14;2.70;;;1.50;;
24637;SDS011;12773;50.162;8.548;2023-05-10T10:05:01;4.22;;;2.17;;
24637;SDS011;12773;50.162;8.548;2023-05-10T10:07:49;3.33;;;1.80;;
24637;SDS011;12773;50.162;8.548;2023-05-10T10:10:37;4.03;;;1.62;;
24637;SDS011;12773;50.162;8.548;2023-05-10T10:13:31;2.37;;;1.70;;
24637;SDS011;12773;50.162;8.548;2023-05-10T10:16:19;4.50;;;1.87;;
24637;SDS011;12773;50.162;8.548;2023-05-10T10:19:07;4.08;;;1.80;;
24637;SDS011;12773;50.162;8.548;2023-05-10T10:21:54;5.05;;;2.10;;
24637;SDS011;12773;50.162;8.548;2023-05-10T10:24:42;4.97;;;1.90;;
24637;SDS011;12773;50.162;8.548;2023-05-10T10:27:36;6.30;;;2.08;;
24637;SDS011;12773;50.162;8.548;2023-05-10T10:33:30;7.20;;;2.65;;
24637;SDS011;12773;50.162;8.548;2023-05-10T10:36:29;5.72;;;1.90;;
24637;SDS011;12773;50.162;8.548;2023-05-10T10:39:18;3.22;;;1.55;;
24637;SDS011;12773;50.162;8.548;2023-05-10T10:42:07;2.42;;;1.60;;
24637;SDS011;12773;50.162;8.548;2023-05-10T10:45:11;2.90;;;1.45;;
24637;SDS011;12773;50.162;8.548;2023-05-10T10:51:09;2.55;;;1.07;;
24637;SDS011;12773;50.162;8.548;2023-05-10T10:53:58;2.15;;;0.93;;
24637;SDS011;12773;50.162;8.548;2023-05-10T10:56:55;4.62;;;1.15;;
24637;SDS011;12773;50.162;8.548;2023-05-10T11:03:09;1.98;;;1.05;;
24637;SDS011;12773;50.162;8.548;2023-05-10T11:06:03;2.42;;;1.02;;
24637;SDS011;12773;50.162;8.548;2023-05-10T11:08:51;1.25;;;0.90;;
24637;SDS011;12773;50.162;8.548;2023-05-10T11:11:48;1.95;;;1.00;;
24637;SDS011;12773;50.162;8.548;2023-05-10T11:14:38;1.72;;;0.90;;
24637;SDS011;12773;50.162;8.548;2023-05-10T11:17:26;3.67;;;1.00;;
24637;SDS011;12773;50.162;8.548;2023-05-10T11:20:14;1.85;;;1.00;;
24637;SDS011;12773;50.162;8.548;2023-05-10T11:23:12;3.52;;;1.00;;
24637;SDS011;12773;50.162;8.548;2023-05-10T11:26:01;1.30;;;1.05;;
24637;SDS011;12773;50.162;8.548;2023-05-10T11:28:48;2.52;;;0.80;;
24637;SDS011;12773;50.162;8.548;2023-05-10T11:31:41;2.27;;;0.70;;
24637;SDS011;12773;50.162;8.548;2023-05-10T11:34:31;4.03;;;0.62;;
24637;SDS011;12773;50.162;8.548;2023-05-10T11:37:21;1.90;;;0.68;;
24637;SDS011;12773;50.162;8.548;2023-05-10T11:40:09;0.80;;;0.70;;
24637;SDS011;12773;50.162;8.548;2023-05-10T11:42:56;1.40;;;0.80;;
24637;SDS011;12773;50.162;8.548;2023-05-10T11:45:44;2.83;;;0.85;;
24637;SDS011;12773;50.162;8.548;2023-05-10T11:48:32;0.62;;;0.60;;
24637;SDS011;12773;50.162;8.548;2023-05-10T11:51:23;3.77;;;0.82;;
24637;SDS011;12773;50.162;8.548;2023-05-10T11:54:11;2.45;;;0.65;;
24637;SDS011;12773;50.162;8.548;2023-05-10T11:56:58;4.03;;;0.62;;
24637;SDS011;12773;50.162;8.548;2023-05-10T11:59:47;0.93;;;0.50;;
24637;SDS011;12773;50.162;8.548;2023-05-10T12:02:36;1.80;;;0.88;;
24637;SDS011;12773;50.162;8.548;2023-05-10T12:05:24;1.27;;;0.60;;
24637;SDS011;12773;50.162;8.548;2023-05-10T12:08:13;1.37;;;0.80;;
24637;SDS011;12773;50.162;8.548;2023-05-10T12:11:09;3.87;;;1.05;;
24637;SDS011;12773;50.162;8.548;2023-05-10T12:13:55;0.80;;;0.57;;
24637;SDS011;12773;50.162;8.548;2023-05-10T12:16:43;2.75;;;0.85;;
24637;SDS011;12773;50.162;8.548;2023-05-10T12:19:37;2.05;;;0.62;;
24637;SDS011;12773;50.162;8.548;2023-05-10T12:22:25;1.05;;;0.60;;
24637;SDS011;12773;50.162;8.548;2023-05-10T12:25:13;2.58;;;0.70;;
24637;SDS011;12773;50.162;8.548;2023-05-10T12:28:06;0.75;;;0.60;;
24637;SDS011;12773;50.162;8.548;2023-05-10T12:30:52;2.20;;;0.70;;
24637;SDS011;12773;50.162;8.548;2023-05-10T12:33:41;3.72;;;0.70;;
24637;SDS011;12773;50.162;8.548;2023-05-10T12:36:30;1.55;;;0.70;;
24637;SDS011;12773;50.162;8.548;2023-05-10T12:39:17;3.15;;;0.60;;
24637;SDS011;12773;50.162;8.548;2023-05-10T12:42:05;2.10;;;0.68;;
24637;SDS011;12773;50.162;8.548;2023-05-10T12:44:57;0.85;;;0.50;;
24637;SDS011;12773;50.162;8.548;2023-05-10T12:47:44;1.10;;;0.68;;
24637;SDS011;12773;50.162;8.548;2023-05-10T12:50:32;3.10;;;1.00;;
24637;SDS011;12773;50.162;8.548;2023-05-10T12:53:19;1.50;;;0.60;;
24637;SDS011;12773;50.162;8.548;2023-05-10T12:56:07;2.08;;;0.60;;
24637;SDS011;12773;50.162;8.548;2023-05-10T12:58:54;0.98;;;0.70;;
24637;SDS011;12773;50.162;8.548;2023-05-10T13:01:42;5.35;;;1.05;;
24637;SDS011;12773;50.162;8.548;2023-05-10T13:04:29;1.52;;;0.60;;
24637;SDS011;12773;50.162;8.548;2023-05-10T13:07:17;2.75;;;0.62;;
24637;SDS011;12773;50.162;8.548;2023-05-10T13:10:05;2.35;;;0.62;;
24637;SDS011;12773;50.162;8.548;2023-05-10T13:12:53;1.17;;;0.50;;
24637;SDS011;12773;50.162;8.548;2023-05-10T13:15:41;1.20;;;0.72;;
24637;SDS011;12773;50.162;8.548;2023-05-10T13:18:28;3.85;;;0.90;;
24637;SDS011;12773;50.162;8.548;2023-05-10T13:21:16;1.60;;;0.93;;
24637;SDS011;12773;50.162;8.548;2023-05-10T13:24:03;1.20;;;0.62;;
24637;SDS011;12773;50.162;8.548;2023-05-10T13:26:51;3.12;;;0.70;;
24637;SDS011;12773;50.162;8.548;2023-05-10T13:29:38;1.60;;;0.65;;
24637;SDS011;12773;50.162;8.548;2023-05-10T13:32:27;1.95;;;0.75;;
24637;SDS011;12773;50.162;8.548;2023-05-10T13:35:15;0.82;;;0.50;;
24637;SDS011;12773;50.162;8.548;2023-05-10T13:38:02;1.55;;;0.60;;
24637;SDS011;12773;50.162;8.548;2023-05-10T13:40:50;1.85;;;0.70;;
24637;SDS011;12773;50.162;8.548;2023-05-10T13:43:39;0.70;;;0.53;;
24637;SDS011;12773;50.162;8.548;2023-05-10T13:46:26;4.15;;;0.70;;
24637;SDS011;12773;50.162;8.548;2023-05-10T13:49:14;2.30;;;0.60;;
24637;SDS011;12773;50.162;8.548;2023-05-10T13:52:01;0.60;;;0.60;;
24637;SDS011;12773;50.162;8.548;2023-05-10T13:54:50;1.02;;;0.47;;
24637;SDS011;12773;50.162;8.548;2023-05-10T13:57:39;1.55;;;0.50;;
24637;SDS011;12773;50.162;8.548;2023-05-10T14:00:28;0.98;;;0.50;;
24637;SDS011;12773;50.162;8.548;2023-05-10T14:03:15;1.85;;;0.40;;
24637;SDS011;12773;50.162;8.548;2023-05-10T14:06:03;0.82;;;0.60;;
24637;SDS011;12773;50.162;8.548;2023-05-10T14:08:50;0.70;;;0.40;;
24637;SDS011;12773;50.162;8.548;2023-05-10T14:11:38;1.22;;;0.50;;
24637;SDS011;12773;50.162;8.548;2023-05-10T14:14:27;2.27;;;0.50;;
24637;SDS011;12773;50.162;8.548;2023-05-10T14:17:15;0.57;;;0.55;;
24637;SDS011;12773;50.162;8.548;2023-05-10T14:20:02;5.12;;;0.55;;
24637;SDS011;12773;50.162;8.548;2023-05-10T14:22:50;0.60;;;0.40;;
24637;SDS011;12773;50.162;8.548;2023-05-10T14:25:38;2.50;;;0.40;;
24637;SDS011;12773;50.162;8.548;2023-05-10T14:28:28;4.90;;;0.50;;
24637;SDS011;12773;50.162;8.548;2023-05-10T14:31:16;1.22;;;0.42;;
24637;SDS011;12773;50.162;8.548;2023-05-10T14:34:05;0.57;;;0.47;;
24637;SDS011;12773;50.162;8.548;2023-05-10T14:36:52;1.50;;;0.47;;
24637;SDS011;12773;50.162;8.548;2023-05-10T14:39:40;2.27;;;0.47;;
24637;SDS011;12773;50.162;8.548;2023-05-10T14:42:28;1.00;;;0.37;;
24637;SDS011;12773;50.162;8.548;2023-05-10T14:45:15;2.55;;;0.40;;
24637;SDS011;12773;50.162;8.548;2023-05-10T14:48:03;0.40;;;0.40;;
24637;SDS011;12773;50.162;8.548;2023-05-10T14:50:51;1.90;;;0.55;;
24637;SDS011;12773;50.162;8.548;2023-05-10T14:53:38;2.17;;;0.53;;
24637;SDS011;12773;50.162;8.548;2023-05-10T14:56:25;2.37;;;0.50;;
24637;SDS011;12773;50.162;8.548;2023-05-10T14:59:13;2.47;;;0.37;;
24637;SDS011;12773;50.162;8.548;2023-05-10T15:02:01;0.60;;;0.40;;
24637;SDS011;12773;50.162;8.548;2023-05-10T15:04:50;0.40;;;0.40;;
24637;SDS011;12773;50.162;8.548;2023-05-10T15:07:38;0.37;;;0.30;;
24637;SDS011;12773;50.162;8.548;2023-05-10T15:10:25;0.40;;;0.40;;
24637;SDS011;12773;50.162;8.548;2023-05-10T15:13:12;0.90;;;0.40;;
24637;SDS011;12773;50.162;8.548;2023-05-10T15:16:00;0.65;;;0.40;;
24637;SDS011;12773;50.162;8.548;2023-05-10T15:18:48;0.45;;;0.40;;
24637;SDS011;12773;50.162;8.548;2023-05-10T15:21:35;1.27;;;0.60;;
24637;SDS011;12773;50.162;8.548;2023-05-10T15:24:24;1.35;;;0.45;;
24637;SDS011;12773;50.162;8.548;2023-05-10T15:27:11;1.85;;;0.47;;
24637;SDS011;12773;50.162;8.548;2023-05-10T15:29:59;0.90;;;0.40;;
24637;SDS011;12773;50.162;8.548;2023-05-10T15:32:47;1.95;;;0.50;;
24637;SDS011;12773;50.162;8.548;2023-05-10T15:35:35;1.30;;;0.50;;
24637;SDS011;12773;50.162;8.548;2023-05-10T15:38:23;1.17;;;0.60;;
24637;SDS011;12773;50.162;8.548;2023-05-10T15:41:11;4.35;;;0.50;;
24637;SDS011;12773;50.162;8.548;2023-05-10T15:43:58;2.95;;;0.72;;
24637;SDS011;12773;50.162;8.548;2023-05-10T15:46:46;0.70;;;0.60;;
24637;SDS011;12773;50.162;8.548;2023-05-10T15:49:33;1.20;;;0.60;;
24637;SDS011;12773;50.162;8.548;2023-05-10T15:52:20;1.85;;;0.50;;
24637;SDS011;12773;50.162;8.548;2023-05-10T15:55:09;1.17;;;0.88;;
24637;SDS011;12773;50.162;8.548;2023-05-10T15:58:00;1.65;;;0.50;;
24637;SDS011;12773;50.162;8.548;2023-05-10T16:00:47;3.00;;;0.68;;
24637;SDS011;12773;50.162;8.548;2023-05-10T16:03:34;4.12;;;0.70;;
24637;SDS011;12773;50.162;8.548;2023-05-10T16:06:22;2.87;;;0.70;;
24637;SDS011;12773;50.162;8.548;2023-05-10T16:09:09;1.62;;;0.70;;
24637;SDS011;12773;50.162;8.548;2023-05-10T16:11:57;2.10;;;0.70;;
24637;SDS011;12773;50.162;8.548;2023-05-10T16:14:45;5.28;;;0.80;;
24637;SDS011;12773;50.162;8.548;2023-05-10T16:17:32;1.57;;;0.72;;
24637;SDS011;12773;50.162;8.548;2023-05-10T16:20:20;2.77;;;0.70;;
24637;SDS011;12773;50.162;8.548;2023-05-10T16:23:07;2.58;;;0.80;;
24637;SDS011;12773;50.162;8.548;2023-05-10T16:25:57;1.55;;;0.65;;
24637;SDS011;12773;50.162;8.548;2023-05-10T16:28:45;3.27;;;1.25;;
24637;SDS011;12773;50.162;8.548;2023-05-10T16:31:32;3.40;;;0.80;;
24637;SDS011;12773;50.162;8.548;2023-05-10T16:34:20;1.30;;;0.70;;
24637;SDS011;12773;50.162;8.548;2023-05-10T16:37:09;1.07;;;0.60;;
24637;SDS011;12773;50.162;8.548;2023-05-10T16:39:56;2.45;;;0.90;;
24637;SDS011;12773;50.162;8.548;2023-05-10T16:42:44;4.12;;;1.25;;
24637;SDS011;12773;50.162;8.548;2023-05-10T16:45:34;2.15;;;0.80;;
24637;SDS011;12773;50.162;8.548;2023-05-10T16:48:21;2.30;;;0.82;;
24637;SDS011;12773;50.162;8.548;2023-05-10T16:51:09;2.02;;;0.90;;
24637;SDS011;12773;50.162;8.548;2023-05-10T16:53:56;1.60;;;0.88;;
24637;SDS011;12773;50.162;8.548;2023-05-10T16:56:44;5.00;;;1.00;;
24637;SDS011;12773;50.162;8.548;2023-05-10T16:59:32;2.02;;;1.00;;
24637;SDS011;12773;50.162;8.548;2023-05-10T17:02:19;5.87;;;1.40;;
24637;SDS011;12773;50.162;8.548;2023-05-10T17:05:07;3.37;;;1.00;;
24637;SDS011;12773;50.162;8.548;2023-05-10T17:07:55;2.40;;;0.90;;
24637;SDS011;12773;50.162;8.548;2023-05-10T17:10:43;3.65;;;0.90;;
24637;SDS011;12773;50.162;8.548;2023-05-10T17:13:30;1.90;;;0.80;;
24637;SDS011;12773;50.162;8.548;2023-05-10T17:16:17;4.50;;;1.20;;
24637;SDS011;12773;50.162;8.548;2023-05-10T17:19:06;4.60;;;1.45;;